Weather at Montrose Airport

Public forecast

Using degrees Celsius for public forecast. Weather courtesy of forecast.io.

Closest aviation weather report (METAR) to Montrose Airport

Closest report is Hoedspruit Air Force Base Airport, 49.6 nm (91.8 km) ENE. Retrieved 2021/06/15 20:00 UTC (1 minute ago):

FAHS 152000Z AUTO 26003KT //// // ////// 15/08 Q1022

Closest aviation forecast (TAF) to Montrose Airport

Forecast is more than 12 hours old.

Closest forecast is Hoedspruit Air Force Base Airport, 49.6 nm (91.8 km) ENE. Retrieved 2017/05/23 04:01 UTC (4 years ago):

TAF FAHS 230300Z 2304/2315 VRB02KT CAVOK TX29/2312ZTN12/2304Z